Alvin, Texas
Current Conditions -  °F | °C
As of 3:53 PM on Tuesday 21 Oct 2014 (Local Time) from KLVJ Reporting Station
Clear Clear  
Wind Chill: 82°   Ceiling: Unl
Heat Index: 82°   Visibility: 10mi
Dew Point: 54°   Wind: 10mph
Humidity: 38%   Direction: 70°ENE
Pressure: 30"   Gusts: NA
Location:  29.42°N, 95.24°W
Report Text: KLVJ 212053Z AUTO 07009KT 10SM CLR 28/12 A3000 RMK AO2 SLP156 T02780122 56020
Loading
Personal Weather Stations






























Interactive Weather Map
Tropical Storm Tracking
New forecast layout! Learn more

10-Day Weather Forecast

Advertisements
Track Severe Weather on mobile